sensor_id;sensor_type;location;lat;lon;timestamp;P1;durP1;ratioP1;P2;durP2;ratioP2
5391;SDS011;2719;53.624;9.786;2023-02-15T00:00:52;28.33;;;13.03;;
5391;SDS011;2719;53.624;9.786;2023-02-15T00:03:19;31.77;;;15.13;;
5391;SDS011;2719;53.624;9.786;2023-02-15T00:05:46;35.70;;;15.30;;
5391;SDS011;2719;53.624;9.786;2023-02-15T00:08:13;40.03;;;15.00;;
5391;SDS011;2719;53.624;9.786;2023-02-15T00:10:41;39.10;;;16.67;;
5391;SDS011;2719;53.624;9.786;2023-02-15T00:13:07;44.23;;;15.80;;
5391;SDS011;2719;53.624;9.786;2023-02-15T00:15:34;34.83;;;16.63;;
5391;SDS011;2719;53.624;9.786;2023-02-15T00:18:01;37.73;;;16.30;;
5391;SDS011;2719;53.624;9.786;2023-02-15T00:20:27;40.50;;;18.40;;
5391;SDS011;2719;53.624;9.786;2023-02-15T00:22:54;35.20;;;15.83;;
5391;SDS011;2719;53.624;9.786;2023-02-15T00:25:21;39.43;;;18.30;;
5391;SDS011;2719;53.624;9.786;2023-02-15T00:27:49;35.60;;;16.60;;
5391;SDS011;2719;53.624;9.786;2023-02-15T00:30:16;33.40;;;15.87;;
5391;SDS011;2719;53.624;9.786;2023-02-15T00:32:42;38.23;;;16.20;;
5391;SDS011;2719;53.624;9.786;2023-02-15T00:35:09;30.80;;;15.83;;
5391;SDS011;2719;53.624;9.786;2023-02-15T00:37:36;31.10;;;14.53;;
5391;SDS011;2719;53.624;9.786;2023-02-15T00:40:03;39.50;;;15.10;;
5391;SDS011;2719;53.624;9.786;2023-02-15T00:42:30;41.83;;;15.30;;
5391;SDS011;2719;53.624;9.786;2023-02-15T00:44:58;31.37;;;14.30;;
5391;SDS011;2719;53.624;9.786;2023-02-15T00:47:25;29.20;;;13.90;;
5391;SDS011;2719;53.624;9.786;2023-02-15T00:49:52;36.33;;;14.30;;
5391;SDS011;2719;53.624;9.786;2023-02-15T00:52:18;32.67;;;13.93;;
5391;SDS011;2719;53.624;9.786;2023-02-15T00:54:45;33.20;;;14.37;;
5391;SDS011;2719;53.624;9.786;2023-02-15T00:57:11;31.40;;;14.87;;
5391;SDS011;2719;53.624;9.786;2023-02-15T00:59:38;35.80;;;15.17;;
5391;SDS011;2719;53.624;9.786;2023-02-15T01:02:06;32.30;;;14.93;;
5391;SDS011;2719;53.624;9.786;2023-02-15T01:04:33;32.20;;;13.90;;
5391;SDS011;2719;53.624;9.786;2023-02-15T01:06:59;30.60;;;14.73;;
5391;SDS011;2719;53.624;9.786;2023-02-15T01:09:26;30.53;;;14.53;;
5391;SDS011;2719;53.624;9.786;2023-02-15T01:11:53;29.27;;;14.37;;
5391;SDS011;2719;53.624;9.786;2023-02-15T01:14:20;33.10;;;13.90;;
5391;SDS011;2719;53.624;9.786;2023-02-15T01:16:46;24.80;;;13.40;;
5391;SDS011;2719;53.624;9.786;2023-02-15T01:19:14;29.00;;;14.70;;
5391;SDS011;2719;53.624;9.786;2023-02-15T01:21:41;30.60;;;14.20;;
5391;SDS011;2719;53.624;9.786;2023-02-15T01:24:10;32.23;;;13.03;;
5391;SDS011;2719;53.624;9.786;2023-02-15T01:26:38;27.43;;;12.17;;
5391;SDS011;2719;53.624;9.786;2023-02-15T01:29:05;31.23;;;14.40;;
5391;SDS011;2719;53.624;9.786;2023-02-15T01:31:31;32.27;;;14.90;;
5391;SDS011;2719;53.624;9.786;2023-02-15T01:33:58;28.23;;;13.57;;
5391;SDS011;2719;53.624;9.786;2023-02-15T01:36:26;34.57;;;14.63;;
5391;SDS011;2719;53.624;9.786;2023-02-15T01:38:53;30.57;;;14.17;;
5391;SDS011;2719;53.624;9.786;2023-02-15T01:41:20;29.53;;;14.50;;
5391;SDS011;2719;53.624;9.786;2023-02-15T01:43:48;32.47;;;13.60;;
5391;SDS011;2719;53.624;9.786;2023-02-15T01:46:17;38.33;;;15.27;;
5391;SDS011;2719;53.624;9.786;2023-02-15T01:48:46;34.37;;;14.43;;
5391;SDS011;2719;53.624;9.786;2023-02-15T01:51:17;46.70;;;14.50;;
5391;SDS011;2719;53.624;9.786;2023-02-15T01:53:48;32.90;;;15.10;;
5391;SDS011;2719;53.624;9.786;2023-02-15T01:56:19;34.53;;;14.47;;
5391;SDS011;2719;53.624;9.786;2023-02-15T01:58:49;36.77;;;13.87;;
5391;SDS011;2719;53.624;9.786;2023-02-15T02:01:20;27.83;;;14.70;;
5391;SDS011;2719;53.624;9.786;2023-02-15T02:03:49;30.80;;;15.40;;
5391;SDS011;2719;53.624;9.786;2023-02-15T02:06:25;39.53;;;16.60;;
5391;SDS011;2719;53.624;9.786;2023-02-15T02:08:53;31.93;;;14.63;;
5391;SDS011;2719;53.624;9.786;2023-02-15T02:11:22;32.50;;;14.30;;
5391;SDS011;2719;53.624;9.786;2023-02-15T02:13:48;32.20;;;13.30;;
5391;SDS011;2719;53.624;9.786;2023-02-15T02:16:19;28.77;;;15.40;;
5391;SDS011;2719;53.624;9.786;2023-02-15T02:18:52;35.13;;;14.43;;
5391;SDS011;2719;53.624;9.786;2023-02-15T02:21:45;42.73;;;15.23;;
5391;SDS011;2719;53.624;9.786;2023-02-15T02:27:39;41.03;;;15.00;;
5391;SDS011;2719;53.624;9.786;2023-02-15T02:30:20;34.27;;;14.67;;
5391;SDS011;2719;53.624;9.786;2023-02-15T02:33:16;33.30;;;15.60;;
5391;SDS011;2719;53.624;9.786;2023-02-15T02:36:00;33.40;;;15.20;;
5391;SDS011;2719;53.624;9.786;2023-02-15T02:38:37;35.87;;;16.93;;
5391;SDS011;2719;53.624;9.786;2023-02-15T02:41:13;34.47;;;14.83;;
5391;SDS011;2719;53.624;9.786;2023-02-15T02:43:46;31.67;;;14.30;;
5391;SDS011;2719;53.624;9.786;2023-02-15T02:46:20;38.47;;;17.70;;
5391;SDS011;2719;53.624;9.786;2023-02-15T02:48:51;39.60;;;14.07;;
5391;SDS011;2719;53.624;9.786;2023-02-15T02:51:19;35.40;;;15.13;;
5391;SDS011;2719;53.624;9.786;2023-02-15T02:53:47;50.63;;;14.37;;
5391;SDS011;2719;53.624;9.786;2023-02-15T02:56:19;31.73;;;13.93;;
5391;SDS011;2719;53.624;9.786;2023-02-15T02:58:51;41.83;;;15.47;;
5391;SDS011;2719;53.624;9.786;2023-02-15T03:01:27;36.20;;;14.97;;
5391;SDS011;2719;53.624;9.786;2023-02-15T03:04:00;36.40;;;15.57;;
5391;SDS011;2719;53.624;9.786;2023-02-15T03:06:33;28.30;;;13.97;;
5391;SDS011;2719;53.624;9.786;2023-02-15T03:09:06;34.37;;;16.37;;
5391;SDS011;2719;53.624;9.786;2023-02-15T03:11:39;44.50;;;16.80;;
5391;SDS011;2719;53.624;9.786;2023-02-15T03:14:07;49.13;;;17.10;;
5391;SDS011;2719;53.624;9.786;2023-02-15T03:16:34;34.73;;;16.00;;
5391;SDS011;2719;53.624;9.786;2023-02-15T03:19:02;30.27;;;15.73;;
5391;SDS011;2719;53.624;9.786;2023-02-15T03:21:34;36.00;;;15.03;;
5391;SDS011;2719;53.624;9.786;2023-02-15T03:24:06;46.97;;;15.50;;
5391;SDS011;2719;53.624;9.786;2023-02-15T03:26:39;38.97;;;16.00;;
5391;SDS011;2719;53.624;9.786;2023-02-15T03:29:08;34.87;;;14.30;;
5391;SDS011;2719;53.624;9.786;2023-02-15T03:31:37;59.33;;;16.23;;
5391;SDS011;2719;53.624;9.786;2023-02-15T03:34:10;56.30;;;16.63;;
5391;SDS011;2719;53.624;9.786;2023-02-15T03:36:39;45.33;;;14.53;;
5391;SDS011;2719;53.624;9.786;2023-02-15T03:39:12;41.63;;;14.77;;
5391;SDS011;2719;53.624;9.786;2023-02-15T03:41:45;36.03;;;15.20;;
5391;SDS011;2719;53.624;9.786;2023-02-15T03:44:18;39.63;;;16.57;;
5391;SDS011;2719;53.624;9.786;2023-02-15T03:46:51;41.13;;;14.20;;
5391;SDS011;2719;53.624;9.786;2023-02-15T03:49:24;54.03;;;14.97;;
5391;SDS011;2719;53.624;9.786;2023-02-15T03:51:55;32.07;;;15.03;;
5391;SDS011;2719;53.624;9.786;2023-02-15T03:54:24;31.77;;;14.20;;
5391;SDS011;2719;53.624;9.786;2023-02-15T03:57:10;38.43;;;15.60;;
5391;SDS011;2719;53.624;9.786;2023-02-15T03:59:56;35.03;;;15.63;;
5391;SDS011;2719;53.624;9.786;2023-02-15T04:02:42;30.23;;;13.60;;
5391;SDS011;2719;53.624;9.786;2023-02-15T04:05:18;37.20;;;15.47;;
5391;SDS011;2719;53.624;9.786;2023-02-15T04:07:45;32.10;;;15.77;;
5391;SDS011;2719;53.624;9.786;2023-02-15T04:10:12;35.20;;;14.90;;
5391;SDS011;2719;53.624;9.786;2023-02-15T04:12:56;30.67;;;14.97;;
5391;SDS011;2719;53.624;9.786;2023-02-15T04:15:23;38.73;;;17.40;;
5391;SDS011;2719;53.624;9.786;2023-02-15T04:18:10;34.43;;;14.73;;
5391;SDS011;2719;53.624;9.786;2023-02-15T04:20:38;32.67;;;15.40;;
5391;SDS011;2719;53.624;9.786;2023-02-15T04:23:22;39.13;;;16.13;;
5391;SDS011;2719;53.624;9.786;2023-02-15T04:26:06;33.90;;;15.23;;
5391;SDS011;2719;53.624;9.786;2023-02-15T04:28:33;41.33;;;16.07;;
5391;SDS011;2719;53.624;9.786;2023-02-15T04:30:59;32.17;;;14.77;;
5391;SDS011;2719;53.624;9.786;2023-02-15T04:33:26;45.47;;;14.00;;
5391;SDS011;2719;53.624;9.786;2023-02-15T04:35:54;40.77;;;14.00;;
5391;SDS011;2719;53.624;9.786;2023-02-15T04:38:21;33.87;;;13.00;;
5391;SDS011;2719;53.624;9.786;2023-02-15T04:40:49;33.53;;;13.80;;
5391;SDS011;2719;53.624;9.786;2023-02-15T04:43:16;29.53;;;14.87;;
5391;SDS011;2719;53.624;9.786;2023-02-15T04:45:46;30.80;;;14.60;;
5391;SDS011;2719;53.624;9.786;2023-02-15T04:48:14;52.40;;;13.23;;
5391;SDS011;2719;53.624;9.786;2023-02-15T04:50:40;48.90;;;14.07;;
5391;SDS011;2719;53.624;9.786;2023-02-15T04:53:08;30.10;;;14.50;;
5391;SDS011;2719;53.624;9.786;2023-02-15T04:55:35;30.80;;;13.70;;
5391;SDS011;2719;53.624;9.786;2023-02-15T04:58:02;27.87;;;12.60;;
5391;SDS011;2719;53.624;9.786;2023-02-15T05:00:29;28.90;;;12.80;;
5391;SDS011;2719;53.624;9.786;2023-02-15T05:02:55;29.67;;;12.30;;
5391;SDS011;2719;53.624;9.786;2023-02-15T05:05:22;41.30;;;14.10;;
5391;SDS011;2719;53.624;9.786;2023-02-15T05:07:49;39.13;;;12.90;;
5391;SDS011;2719;53.624;9.786;2023-02-15T05:10:17;43.10;;;11.80;;
5391;SDS011;2719;53.624;9.786;2023-02-15T05:12:44;25.70;;;12.37;;
5391;SDS011;2719;53.624;9.786;2023-02-15T05:15:10;29.80;;;13.10;;
5391;SDS011;2719;53.624;9.786;2023-02-15T05:17:37;24.63;;;12.03;;
5391;SDS011;2719;53.624;9.786;2023-02-15T05:20:04;25.17;;;11.40;;
5391;SDS011;2719;53.624;9.786;2023-02-15T05:22:31;27.87;;;13.53;;
5391;SDS011;2719;53.624;9.786;2023-02-15T05:24:58;27.43;;;12.77;;
5391;SDS011;2719;53.624;9.786;2023-02-15T05:27:44;32.20;;;13.90;;
5391;SDS011;2719;53.624;9.786;2023-02-15T05:30:28;26.47;;;12.60;;
5391;SDS011;2719;53.624;9.786;2023-02-15T05:32:54;36.80;;;13.70;;
5391;SDS011;2719;53.624;9.786;2023-02-15T05:35:21;28.40;;;12.83;;
5391;SDS011;2719;53.624;9.786;2023-02-15T05:37:48;25.83;;;12.30;;
5391;SDS011;2719;53.624;9.786;2023-02-15T05:40:15;30.00;;;12.60;;
5391;SDS011;2719;53.624;9.786;2023-02-15T05:42:41;39.17;;;15.00;;
5391;SDS011;2719;53.624;9.786;2023-02-15T05:45:09;30.53;;;11.47;;
5391;SDS011;2719;53.624;9.786;2023-02-15T05:47:36;25.10;;;11.77;;
5391;SDS011;2719;53.624;9.786;2023-02-15T05:50:03;25.70;;;12.20;;
5391;SDS011;2719;53.624;9.786;2023-02-15T05:52:31;50.57;;;11.47;;
5391;SDS011;2719;53.624;9.786;2023-02-15T05:54:57;31.63;;;12.30;;
5391;SDS011;2719;53.624;9.786;2023-02-15T05:57:25;30.90;;;13.10;;
5391;SDS011;2719;53.624;9.786;2023-02-15T05:59:53;30.57;;;12.67;;
5391;SDS011;2719;53.624;9.786;2023-02-15T06:02:19;25.80;;;11.93;;
5391;SDS011;2719;53.624;9.786;2023-02-15T06:04:46;21.80;;;10.13;;
5391;SDS011;2719;53.624;9.786;2023-02-15T06:07:13;25.77;;;12.50;;
5391;SDS011;2719;53.624;9.786;2023-02-15T06:09:39;33.63;;;11.90;;
5391;SDS011;2719;53.624;9.786;2023-02-15T06:12:06;26.10;;;12.73;;
5391;SDS011;2719;53.624;9.786;2023-02-15T06:14:33;24.63;;;11.70;;
5391;SDS011;2719;53.624;9.786;2023-02-15T06:17:01;21.30;;;10.50;;
5391;SDS011;2719;53.624;9.786;2023-02-15T06:19:28;25.90;;;12.43;;
5391;SDS011;2719;53.624;9.786;2023-02-15T06:21:54;28.73;;;11.83;;
5391;SDS011;2719;53.624;9.786;2023-02-15T06:24:21;33.13;;;10.60;;
5391;SDS011;2719;53.624;9.786;2023-02-15T06:26:47;24.10;;;10.20;;
5391;SDS011;2719;53.624;9.786;2023-02-15T06:29:14;20.97;;;11.70;;
5391;SDS011;2719;53.624;9.786;2023-02-15T06:31:41;27.17;;;10.63;;
5391;SDS011;2719;53.624;9.786;2023-02-15T06:34:09;22.03;;;11.33;;
5391;SDS011;2719;53.624;9.786;2023-02-15T06:36:36;25.60;;;11.10;;
5391;SDS011;2719;53.624;9.786;2023-02-15T06:39:02;21.50;;;10.57;;
5391;SDS011;2719;53.624;9.786;2023-02-15T06:41:29;27.50;;;10.73;;
5391;SDS011;2719;53.624;9.786;2023-02-15T06:43:56;22.07;;;10.70;;
5391;SDS011;2719;53.624;9.786;2023-02-15T06:46:22;25.77;;;11.83;;
5391;SDS011;2719;53.624;9.786;2023-02-15T06:48:49;40.50;;;11.43;;
5391;SDS011;2719;53.624;9.786;2023-02-15T06:51:17;32.23;;;11.70;;
5391;SDS011;2719;53.624;9.786;2023-02-15T06:53:44;23.93;;;11.53;;
5391;SDS011;2719;53.624;9.786;2023-02-15T06:56:10;27.40;;;12.53;;
5391;SDS011;2719;53.624;9.786;2023-02-15T06:58:38;27.30;;;11.83;;
5391;SDS011;2719;53.624;9.786;2023-02-15T07:01:05;29.53;;;11.57;;
5391;SDS011;2719;53.624;9.786;2023-02-15T07:03:33;25.03;;;12.03;;
5391;SDS011;2719;53.624;9.786;2023-02-15T07:06:01;20.37;;;10.17;;
5391;SDS011;2719;53.624;9.786;2023-02-15T07:08:34;27.93;;;12.80;;
5391;SDS011;2719;53.624;9.786;2023-02-15T07:11:01;32.47;;;13.53;;
5391;SDS011;2719;53.624;9.786;2023-02-15T07:13:42;29.30;;;12.40;;
5391;SDS011;2719;53.624;9.786;2023-02-15T07:16:09;27.00;;;12.73;;
5391;SDS011;2719;53.624;9.786;2023-02-15T07:18:36;38.50;;;13.83;;
5391;SDS011;2719;53.624;9.786;2023-02-15T07:21:03;34.27;;;12.60;;
5391;SDS011;2719;53.624;9.786;2023-02-15T07:23:32;30.67;;;13.50;;
5391;SDS011;2719;53.624;9.786;2023-02-15T07:26:01;29.83;;;13.10;;
5391;SDS011;2719;53.624;9.786;2023-02-15T07:28:28;31.00;;;13.30;;
5391;SDS011;2719;53.624;9.786;2023-02-15T07:30:55;26.77;;;12.40;;
5391;SDS011;2719;53.624;9.786;2023-02-15T07:33:22;25.83;;;12.40;;
5391;SDS011;2719;53.624;9.786;2023-02-15T07:35:49;37.57;;;12.87;;
5391;SDS011;2719;53.624;9.786;2023-02-15T07:38:17;40.63;;;13.73;;
5391;SDS011;2719;53.624;9.786;2023-02-15T07:40:45;35.87;;;12.87;;
5391;SDS011;2719;53.624;9.786;2023-02-15T07:43:12;30.00;;;13.67;;
5391;SDS011;2719;53.624;9.786;2023-02-15T07:45:40;25.43;;;13.10;;
5391;SDS011;2719;53.624;9.786;2023-02-15T07:48:06;32.13;;;13.63;;
5391;SDS011;2719;53.624;9.786;2023-02-15T07:50:33;22.87;;;12.03;;
5391;SDS011;2719;53.624;9.786;2023-02-15T07:53:00;24.23;;;11.07;;
5391;SDS011;2719;53.624;9.786;2023-02-15T07:55:28;29.63;;;14.03;;
5391;SDS011;2719;53.624;9.786;2023-02-15T07:57:56;38.80;;;12.20;;
5391;SDS011;2719;53.624;9.786;2023-02-15T08:00:22;28.53;;;13.63;;
5391;SDS011;2719;53.624;9.786;2023-02-15T08:02:51;25.83;;;12.90;;
5391;SDS011;2719;53.624;9.786;2023-02-15T08:05:32;30.37;;;14.90;;
5391;SDS011;2719;53.624;9.786;2023-02-15T08:07:59;30.63;;;14.60;;
5391;SDS011;2719;53.624;9.786;2023-02-15T08:10:26;37.13;;;13.93;;
5391;SDS011;2719;53.624;9.786;2023-02-15T08:13:14;33.03;;;14.83;;
5391;SDS011;2719;53.624;9.786;2023-02-15T08:15:47;33.20;;;14.70;;
5391;SDS011;2719;53.624;9.786;2023-02-15T08:18:14;34.00;;;14.93;;
5391;SDS011;2719;53.624;9.786;2023-02-15T08:20:41;37.53;;;15.07;;
5391;SDS011;2719;53.624;9.786;2023-02-15T08:23:07;39.87;;;14.67;;
5391;SDS011;2719;53.624;9.786;2023-02-15T08:25:34;43.63;;;16.30;;
5391;SDS011;2719;53.624;9.786;2023-02-15T08:28:01;40.20;;;14.60;;
5391;SDS011;2719;53.624;9.786;2023-02-15T08:30:29;34.80;;;13.97;;
5391;SDS011;2719;53.624;9.786;2023-02-15T08:32:56;39.10;;;14.83;;
5391;SDS011;2719;53.624;9.786;2023-02-15T08:35:24;42.40;;;17.90;;
5391;SDS011;2719;53.624;9.786;2023-02-15T08:37:51;30.80;;;14.77;;
5391;SDS011;2719;53.624;9.786;2023-02-15T08:40:17;33.80;;;14.30;;
5391;SDS011;2719;53.624;9.786;2023-02-15T08:42:44;36.20;;;16.50;;
5391;SDS011;2719;53.624;9.786;2023-02-15T08:45:11;35.00;;;15.97;;
5391;SDS011;2719;53.624;9.786;2023-02-15T08:47:39;38.60;;;16.93;;
5391;SDS011;2719;53.624;9.786;2023-02-15T08:50:06;39.17;;;14.60;;
5391;SDS011;2719;53.624;9.786;2023-02-15T08:52:33;40.87;;;15.17;;
5391;SDS011;2719;53.624;9.786;2023-02-15T08:54:59;29.70;;;14.63;;
5391;SDS011;2719;53.624;9.786;2023-02-15T08:57:26;37.23;;;16.30;;
5391;SDS011;2719;53.624;9.786;2023-02-15T08:59:53;30.97;;;14.97;;
5391;SDS011;2719;53.624;9.786;2023-02-15T09:02:20;36.73;;;15.50;;
5391;SDS011;2719;53.624;9.786;2023-02-15T09:04:48;46.97;;;17.20;;
5391;SDS011;2719;53.624;9.786;2023-02-15T09:07:15;35.67;;;16.60;;
5391;SDS011;2719;53.624;9.786;2023-02-15T09:09:43;29.00;;;14.10;;
5391;SDS011;2719;53.624;9.786;2023-02-15T09:12:10;29.07;;;14.00;;
5391;SDS011;2719;53.624;9.786;2023-02-15T09:14:37;30.63;;;14.83;;
5391;SDS011;2719;53.624;9.786;2023-02-15T09:17:03;35.87;;;15.30;;
5391;SDS011;2719;53.624;9.786;2023-02-15T09:19:31;30.87;;;14.30;;
5391;SDS011;2719;53.624;9.786;2023-02-15T09:21:59;26.27;;;12.30;;
5391;SDS011;2719;53.624;9.786;2023-02-15T09:24:25;27.30;;;13.63;;
5391;SDS011;2719;53.624;9.786;2023-02-15T09:26:52;30.80;;;13.60;;
5391;SDS011;2719;53.624;9.786;2023-02-15T09:29:19;36.70;;;13.67;;
5391;SDS011;2719;53.624;9.786;2023-02-15T09:31:46;36.10;;;15.70;;
5391;SDS011;2719;53.624;9.786;2023-02-15T09:34:15;31.37;;;15.73;;
5391;SDS011;2719;53.624;9.786;2023-02-15T09:36:43;31.67;;;14.37;;
5391;SDS011;2719;53.624;9.786;2023-02-15T09:39:13;36.83;;;15.50;;
5391;SDS011;2719;53.624;9.786;2023-02-15T09:44:44;30.10;;;13.67;;
5391;SDS011;2719;53.624;9.786;2023-02-15T09:47:32;36.60;;;15.40;;
5391;SDS011;2719;53.624;9.786;2023-02-15T09:50:11;36.80;;;16.23;;
5391;SDS011;2719;53.624;9.786;2023-02-15T09:52:53;37.80;;;17.27;;
5391;SDS011;2719;53.624;9.786;2023-02-15T09:55:37;40.40;;;17.87;;
5391;SDS011;2719;53.624;9.786;2023-02-15T09:58:13;33.57;;;17.60;;
5391;SDS011;2719;53.624;9.786;2023-02-15T10:00:49;33.17;;;15.77;;
5391;SDS011;2719;53.624;9.786;2023-02-15T10:03:29;36.50;;;17.87;;
5391;SDS011;2719;53.624;9.786;2023-02-15T10:06:13;40.60;;;17.90;;
5391;SDS011;2719;53.624;9.786;2023-02-15T10:09:02;35.50;;;16.77;;
5391;SDS011;2719;53.624;9.786;2023-02-15T10:11:41;35.53;;;17.00;;
5391;SDS011;2719;53.624;9.786;2023-02-15T10:14:30;30.13;;;16.03;;
5391;SDS011;2719;53.624;9.786;2023-02-15T10:17:19;35.73;;;17.00;;
5391;SDS011;2719;53.624;9.786;2023-02-15T10:20:02;31.77;;;16.20;;
5391;SDS011;2719;53.624;9.786;2023-02-15T10:22:40;30.67;;;16.43;;
5391;SDS011;2719;53.624;9.786;2023-02-15T10:25:17;33.83;;;16.30;;
5391;SDS011;2719;53.624;9.786;2023-02-15T10:27:57;30.43;;;15.20;;
5391;SDS011;2719;53.624;9.786;2023-02-15T10:30:33;31.50;;;15.90;;
5391;SDS011;2719;53.624;9.786;2023-02-15T10:33:11;33.63;;;15.37;;
5391;SDS011;2719;53.624;9.786;2023-02-15T10:35:47;28.40;;;14.90;;
5391;SDS011;2719;53.624;9.786;2023-02-15T10:38:22;30.57;;;15.60;;
5391;SDS011;2719;53.624;9.786;2023-02-15T10:40:57;32.20;;;15.57;;
5391;SDS011;2719;53.624;9.786;2023-02-15T10:43:43;34.67;;;16.80;;
5391;SDS011;2719;53.624;9.786;2023-02-15T10:46:33;31.03;;;14.67;;
5391;SDS011;2719;53.624;9.786;2023-02-15T10:49:23;32.20;;;15.20;;
5391;SDS011;2719;53.624;9.786;2023-02-15T10:52:18;34.13;;;16.30;;
5391;SDS011;2719;53.624;9.786;2023-02-15T10:54:56;25.27;;;13.93;;
5391;SDS011;2719;53.624;9.786;2023-02-15T10:57:36;27.40;;;14.00;;
5391;SDS011;2719;53.624;9.786;2023-02-15T11:00:11;29.97;;;15.40;;
5391;SDS011;2719;53.624;9.786;2023-02-15T11:02:45;27.70;;;15.70;;
5391;SDS011;2719;53.624;9.786;2023-02-15T11:05:29;30.40;;;15.30;;
5391;SDS011;2719;53.624;9.786;2023-02-15T11:08:03;29.77;;;14.17;;
5391;SDS011;2719;53.624;9.786;2023-02-15T11:10:33;31.97;;;15.03;;
5391;SDS011;2719;53.624;9.786;2023-02-15T11:13:04;31.30;;;14.30;;
5391;SDS011;2719;53.624;9.786;2023-02-15T11:15:38;28.47;;;13.67;;
5391;SDS011;2719;53.624;9.786;2023-02-15T11:18:09;27.53;;;15.90;;
5391;SDS011;2719;53.624;9.786;2023-02-15T11:20:41;32.73;;;15.07;;
5391;SDS011;2719;53.624;9.786;2023-02-15T11:23:14;33.50;;;16.90;;
5391;SDS011;2719;53.624;9.786;2023-02-15T11:25:44;37.93;;;17.67;;
5391;SDS011;2719;53.624;9.786;2023-02-15T11:28:16;34.90;;;17.67;;
5391;SDS011;2719;53.624;9.786;2023-02-15T11:30:47;36.97;;;17.53;;
5391;SDS011;2719;53.624;9.786;2023-02-15T11:33:18;32.03;;;16.80;;
5391;SDS011;2719;53.624;9.786;2023-02-15T11:35:48;33.10;;;16.97;;
5391;SDS011;2719;53.624;9.786;2023-02-15T11:38:20;29.73;;;16.37;;
5391;SDS011;2719;53.624;9.786;2023-02-15T11:40:49;35.20;;;18.20;;
5391;SDS011;2719;53.624;9.786;2023-02-15T11:43:22;34.43;;;16.63;;
5391;SDS011;2719;53.624;9.786;2023-02-15T11:45:53;35.40;;;15.80;;
5391;SDS011;2719;53.624;9.786;2023-02-15T11:48:20;29.90;;;15.90;;
5391;SDS011;2719;53.624;9.786;2023-02-15T11:50:47;27.63;;;15.13;;
5391;SDS011;2719;53.624;9.786;2023-02-15T11:53:14;34.17;;;16.70;;
5391;SDS011;2719;53.624;9.786;2023-02-15T11:55:42;36.00;;;17.80;;
5391;SDS011;2719;53.624;9.786;2023-02-15T11:58:13;29.00;;;15.80;;
5391;SDS011;2719;53.624;9.786;2023-02-15T12:00:47;32.60;;;16.40;;
5391;SDS011;2719;53.624;9.786;2023-02-15T12:03:20;34.37;;;17.37;;
5391;SDS011;2719;53.624;9.786;2023-02-15T12:05:55;35.60;;;18.23;;
5391;SDS011;2719;53.624;9.786;2023-02-15T12:08:26;32.80;;;16.57;;
5391;SDS011;2719;53.624;9.786;2023-02-15T12:11:05;36.67;;;17.97;;
5391;SDS011;2719;53.624;9.786;2023-02-15T12:13:37;39.40;;;19.07;;
5391;SDS011;2719;53.624;9.786;2023-02-15T12:16:20;33.73;;;17.07;;
5391;SDS011;2719;53.624;9.786;2023-02-15T12:18:48;32.47;;;17.60;;
5391;SDS011;2719;53.624;9.786;2023-02-15T12:21:23;31.13;;;16.70;;
5391;SDS011;2719;53.624;9.786;2023-02-15T12:23:53;36.00;;;18.37;;
5391;SDS011;2719;53.624;9.786;2023-02-15T12:26:25;29.33;;;16.87;;
5391;SDS011;2719;53.624;9.786;2023-02-15T12:28:52;36.77;;;17.20;;
5391;SDS011;2719;53.624;9.786;2023-02-15T12:31:24;28.47;;;16.00;;
5391;SDS011;2719;53.624;9.786;2023-02-15T12:33:58;35.30;;;16.60;;
5391;SDS011;2719;53.624;9.786;2023-02-15T12:36:29;28.10;;;16.63;;
5391;SDS011;2719;53.624;9.786;2023-02-15T12:39:05;28.60;;;15.47;;
5391;SDS011;2719;53.624;9.786;2023-02-15T12:41:45;36.87;;;18.37;;
5391;SDS011;2719;53.624;9.786;2023-02-15T12:44:22;31.80;;;17.67;;
5391;SDS011;2719;53.624;9.786;2023-02-15T12:46:58;33.10;;;17.13;;
5391;SDS011;2719;53.624;9.786;2023-02-15T12:49:28;32.40;;;18.00;;
5391;SDS011;2719;53.624;9.786;2023-02-15T12:51:56;32.20;;;17.10;;
5391;SDS011;2719;53.624;9.786;2023-02-15T12:54:28;27.20;;;16.37;;
5391;SDS011;2719;53.624;9.786;2023-02-15T12:57:01;28.80;;;15.60;;
5391;SDS011;2719;53.624;9.786;2023-02-15T12:59:47;32.20;;;17.67;;
5391;SDS011;2719;53.624;9.786;2023-02-15T13:02:20;32.83;;;17.50;;
5391;SDS011;2719;53.624;9.786;2023-02-15T13:04:50;30.60;;;16.30;;
5391;SDS011;2719;53.624;9.786;2023-02-15T13:07:18;32.00;;;18.00;;
5391;SDS011;2719;53.624;9.786;2023-02-15T13:09:45;34.03;;;18.60;;
5391;SDS011;2719;53.624;9.786;2023-02-15T13:12:16;27.13;;;15.53;;
5391;SDS011;2719;53.624;9.786;2023-02-15T13:14:47;32.27;;;18.40;;
5391;SDS011;2719;53.624;9.786;2023-02-15T13:17:17;29.03;;;16.87;;
5391;SDS011;2719;53.624;9.786;2023-02-15T13:19:49;29.27;;;17.27;;
5391;SDS011;2719;53.624;9.786;2023-02-15T13:22:20;25.47;;;13.70;;
5391;SDS011;2719;53.624;9.786;2023-02-15T13:24:51;27.37;;;16.63;;
5391;SDS011;2719;53.624;9.786;2023-02-15T13:27:22;30.30;;;17.97;;
5391;SDS011;2719;53.624;9.786;2023-02-15T13:29:56;30.67;;;18.70;;
5391;SDS011;2719;53.624;9.786;2023-02-15T13:32:27;35.50;;;19.90;;
5391;SDS011;2719;53.624;9.786;2023-02-15T13:34:58;32.57;;;18.10;;
5391;SDS011;2719;53.624;9.786;2023-02-15T13:40:15;33.20;;;19.90;;
5391;SDS011;2719;53.624;9.786;2023-02-15T13:42:49;33.00;;;17.03;;
5391;SDS011;2719;53.624;9.786;2023-02-15T13:45:24;34.47;;;19.00;;
5391;SDS011;2719;53.624;9.786;2023-02-15T13:47:59;31.23;;;19.17;;
5391;SDS011;2719;53.624;9.786;2023-02-15T13:50:42;32.47;;;18.83;;
5391;SDS011;2719;53.624;9.786;2023-02-15T13:53:24;39.27;;;20.37;;
5391;SDS011;2719;53.624;9.786;2023-02-15T13:56:04;34.13;;;18.40;;
5391;SDS011;2719;53.624;9.786;2023-02-15T13:58:44;32.17;;;19.30;;
5391;SDS011;2719;53.624;9.786;2023-02-15T14:01:27;34.63;;;19.80;;
5391;SDS011;2719;53.624;9.786;2023-02-15T14:04:07;34.67;;;18.27;;
5391;SDS011;2719;53.624;9.786;2023-02-15T14:07:04;23.33;;;13.80;;
5391;SDS011;2719;53.624;9.786;2023-02-15T14:09:52;31.87;;;20.20;;
5391;SDS011;2719;53.624;9.786;2023-02-15T14:12:29;37.73;;;19.37;;
5391;SDS011;2719;53.624;9.786;2023-02-15T14:15:08;34.73;;;18.80;;
5391;SDS011;2719;53.624;9.786;2023-02-15T14:17:51;29.00;;;17.90;;
5391;SDS011;2719;53.624;9.786;2023-02-15T14:20:29;32.00;;;18.80;;
5391;SDS011;2719;53.624;9.786;2023-02-15T14:23:06;29.87;;;17.70;;
5391;SDS011;2719;53.624;9.786;2023-02-15T14:25:41;30.60;;;18.43;;
5391;SDS011;2719;53.624;9.786;2023-02-15T14:28:14;31.13;;;18.07;;
5391;SDS011;2719;53.624;9.786;2023-02-15T14:30:48;30.47;;;17.20;;
5391;SDS011;2719;53.624;9.786;2023-02-15T14:33:24;31.23;;;18.10;;
5391;SDS011;2719;53.624;9.786;2023-02-15T14:35:56;30.03;;;17.90;;
5391;SDS011;2719;53.624;9.786;2023-02-15T14:38:37;41.57;;;19.07;;
5391;SDS011;2719;53.624;9.786;2023-02-15T14:41:14;26.77;;;16.63;;
5391;SDS011;2719;53.624;9.786;2023-02-15T14:43:46;29.40;;;16.80;;
5391;SDS011;2719;53.624;9.786;2023-02-15T14:46:21;33.80;;;18.97;;
5391;SDS011;2719;53.624;9.786;2023-02-15T14:48:52;31.23;;;16.40;;
5391;SDS011;2719;53.624;9.786;2023-02-15T14:57:25;29.03;;;17.13;;
5391;SDS011;2719;53.624;9.786;2023-02-15T14:59:53;32.60;;;17.00;;
5391;SDS011;2719;53.624;9.786;2023-02-15T15:02:23;29.43;;;17.90;;
5391;SDS011;2719;53.624;9.786;2023-02-15T15:04:56;34.20;;;19.17;;
5391;SDS011;2719;53.624;9.786;2023-02-15T15:07:36;30.00;;;16.93;;
5391;SDS011;2719;53.624;9.786;2023-02-15T15:13:33;30.90;;;18.40;;
5391;SDS011;2719;53.624;9.786;2023-02-15T15:19:09;25.80;;;15.50;;
5391;SDS011;2719;53.624;9.786;2023-02-15T15:21:53;31.37;;;17.00;;
5391;SDS011;2719;53.624;9.786;2023-02-15T15:33:22;32.40;;;17.17;;
5391;SDS011;2719;53.624;9.786;2023-02-15T15:39:21;31.70;;;17.47;;
5391;SDS011;2719;53.624;9.786;2023-02-15T15:42:19;29.27;;;17.03;;
5391;SDS011;2719;53.624;9.786;2023-02-15T15:45:17;29.10;;;17.13;;
5391;SDS011;2719;53.624;9.786;2023-02-15T15:48:19;29.00;;;16.00;;